Time;durP1;ratioP1;P1;durP2;ratioP2;P2;SDS_P1;SDS_P2;PMS_P1;PMS_P2;Temp;Humidity;BMP_temperature;BMP_pressure;BME280_temperature;BME280_humidity;BME280_pressure;Samples;Min_cycle;Max_cycle;Signal;HPM_P1;HPM_P2
2022/05/28 00:02:10;;;;;;;;;;;;;;;18.44;60.20;99569.97;4503248;31;19976;-86
2022/05/28 00:04:36;;;;;;;;;;;;;;;18.40;60.20;99579.88;4503202;31;20033;-86
2022/05/28 00:07:02;;;;;;;;;;;;;;;18.42;60.20;99578.81;4503193;31;19983;-86
2022/05/28 00:09:28;;;;;;;;;;;;;;;18.51;60.21;99579.16;4503303;31;20040;-85
2022/05/28 00:11:53;;;;;;;;;;;;;;;18.55;60.21;99575.38;4488728;31;20006;-86
2022/05/28 00:14:18;;;;;;;;;;;;;;;18.71;60.22;99578.69;4475361;31;19985;-87
2022/05/28 00:16:46;;;;;;;;;;;;;;;18.46;60.21;99573.38;4503254;31;20305;-86
2022/05/28 00:19:11;;;;;;;;;;;;;;;18.44;60.20;99581.34;4489314;31;20003;-86
2022/05/28 00:21:36;;;;;;;;;;;;;;;18.58;60.21;99575.16;4488787;31;20079;-86
2022/05/28 00:24:02;;;;;;;;;;;;;;;18.42;60.20;99568.28;4503132;31;20321;-86
2022/05/28 00:26:27;;;;;;;;;;;;;;;18.35;60.20;99561.75;4475727;31;19980;-85
2022/05/28 00:28:52;;;;;;;;;;;;;;;18.33;60.20;99565.44;4504787;31;19999;-85
2022/05/28 00:31:17;;;;;;;;;;;;;;;18.47;60.21;99570.62;4489578;31;20222;-86
2022/05/28 00:33:43;;;;;;;;;;;;;;;18.44;60.20;99583.16;4488890;31;19984;-85
2022/05/28 00:36:10;;;;;;;;;;;;;;;18.38;60.21;99594.94;4488697;31;19965;-85
2022/05/28 00:38:35;;;;;;;;;;;;;;;18.25;60.19;99597.56;4503128;31;20031;-86
2022/05/28 00:41:01;;;;;;;;;;;;;;;18.20;60.19;99599.63;4488764;31;20020;-85
2022/05/28 00:43:27;;;;;;;;;;;;;;;17.92;60.18;99619.03;4502847;31;20301;-86
2022/05/28 00:45:54;;;;;;;;;;;;;;;17.89;60.17;99621.84;4488371;31;19964;-87
2022/05/28 00:48:24;;;;;;;;;;;;;;;17.92;60.18;99608.50;4488539;31;20366;-88
2022/05/28 00:50:49;;;;;;;;;;;;;;;17.92;60.18;99616.41;4475346;31;20288;-87
2022/05/28 00:53:15;;;;;;;;;;;;;;;17.93;60.18;99611.97;4488493;31;20004;-88
2022/05/28 00:55:40;;;;;;;;;;;;;;;17.72;60.17;99614.19;4488569;31;20297;-88
2022/05/28 00:58:06;;;;;;;;;;;;;;;17.82;60.17;99610.03;4502929;31;19984;-88
2022/05/28 01:00:32;;;;;;;;;;;;;;;17.96;60.17;99607.34;4475597;31;20032;-88
2022/05/28 01:03:16;;;;;;;;;;;;;;;17.98;60.18;99592.31;4503222;31;19980;-88
2022/05/28 01:05:44;;;;;;;;;;;;;;;18.07;60.19;99589.06;4488328;31;19968;-89
2022/05/28 01:08:14;;;;;;;;;;;;;;;18.05;60.18;99574.31;4488355;31;20027;-88
2022/05/28 01:11:00;;;;;;;;;;;;;;;18.00;60.19;99572.00;4475421;31;19988;-89
2022/05/28 01:13:30;;;;;;;;;;;;;;;18.01;60.18;99567.56;4475104;31;19984;-86
2022/05/28 01:15:57;;;;;;;;;;;;;;;17.92;60.18;99558.47;4488273;31;19980;-86
2022/05/28 01:18:31;;;;;;;;;;;;;;;17.94;60.18;99558.34;4488163;31;20040;-86
2022/05/28 01:20:58;;;;;;;;;;;;;;;17.98;60.18;99552.81;4502775;31;19980;-87
2022/05/28 01:23:23;;;;;;;;;;;;;;;17.88;60.18;99556.12;4502671;31;19980;-86
2022/05/28 01:25:56;;;;;;;;;;;;;;;17.81;60.17;99549.59;4502721;31;19968;-86
2022/05/28 01:28:23;;;;;;;;;;;;;;;17.73;60.17;99545.63;4488232;31;20015;-86
2022/05/28 01:30:48;;;;;;;;;;;;;;;17.76;60.16;99542.00;4488263;31;20385;-86
2022/05/28 01:33:14;;;;;;;;;;;;;;;17.74;60.17;99542.09;4488160;31;19984;-87
2022/05/28 01:35:39;;;;;;;;;;;;;;;17.63;60.17;99535.78;4488171;31;19968;-87
2022/05/28 01:38:05;;;;;;;;;;;;;;;17.60;60.16;99552.63;4488115;31;19980;-86
2022/05/28 01:40:30;;;;;;;;;;;;;;;17.57;60.16;99552.81;4488227;31;20007;-87
2022/05/28 01:42:55;;;;;;;;;;;;;;;17.68;60.16;99544.25;4474850;31;19984;-87
2022/05/28 01:45:22;;;;;;;;;;;;;;;17.71;60.16;99533.53;4488119;31;20052;-87
2022/05/28 01:47:47;;;;;;;;;;;;;;;17.77;60.17;99549.78;4502282;31;20040;-87
2022/05/28 01:50:13;;;;;;;;;;;;;;;17.96;60.18;99548.56;4488141;31;19976;-86
2022/05/28 01:52:38;;;;;;;;;;;;;;;17.81;60.17;99563.59;4502434;31;19980;-87
2022/05/28 01:55:04;;;;;;;;;;;;;;;17.78;60.17;99575.16;4488084;31;19984;-87
2022/05/28 01:57:29;;;;;;;;;;;;;;;17.82;60.17;99572.34;4487926;31;19992;-86
2022/05/28 01:59:54;;;;;;;;;;;;;;;17.89;60.17;99570.97;4487908;31;19988;-86
2022/05/28 02:02:19;;;;;;;;;;;;;;;17.75;60.17;99571.88;4487894;31;20024;-86
2022/05/28 02:04:46;;;;;;;;;;;;;;;17.80;60.17;99580.34;4502193;31;19983;-87
2022/05/28 02:07:11;;;;;;;;;;;;;;;17.94;60.18;99575.00;4502176;31;20015;-86
2022/05/28 02:09:41;;;;;;;;;;;;;;;17.79;60.17;99568.13;4487808;31;20007;-87
2022/05/28 02:12:06;;;;;;;;;;;;;;;17.86;60.18;99563.28;4487912;31;20418;-88
2022/05/28 02:14:48;;;;;;;;;;;;;;;17.82;60.17;99553.91;4502140;31;19972;-86
2022/05/28 02:17:13;;;;;;;;;;;;;;;17.69;60.17;99574.91;4502308;31;19981;-88
2022/05/28 02:19:42;;;;;;;;;;;;;;;17.64;60.16;99582.22;4488442;31;20011;-88
2022/05/28 02:22:12;;;;;;;;;;;;;;;17.65;60.16;99574.22;4504161;31;20044;-88
2022/05/28 02:24:49;;;;;;;;;;;;;;;17.67;60.16;99569.72;4487868;31;19972;-88
2022/05/28 02:27:15;;;;;;;;;;;;;;;17.66;60.16;99570.62;4487640;31;20389;-88
2022/05/28 02:29:40;;;;;;;;;;;;;;;17.57;60.16;99579.13;4487742;31;19988;-86
2022/05/28 02:32:16;;;;;;;;;;;;;;;17.61;60.17;99580.63;4502021;31;19988;-87
2022/05/28 02:34:41;;;;;;;;;;;;;;;17.48;60.15;99585.81;4502060;31;19975;-87
2022/05/28 02:37:07;;;;;;;;;;;;;;;17.37;60.14;99585.66;4474324;31;20321;-87
2022/05/28 02:39:32;;;;;;;;;;;;;;;17.48;60.16;99596.34;4487444;31;20000;-88
2022/05/28 02:41:57;;;;;;;;;;;;;;;17.45;60.16;99601.78;4487386;31;19980;-87
2022/05/28 02:44:23;;;;;;;;;;;;;;;17.43;60.14;99595.78;4486806;31;24986;-88
2022/05/28 02:46:48;;;;;;;;;;;;;;;17.46;60.16;99586.84;4487234;31;20330;-87
2022/05/28 02:49:13;;;;;;;;;;;;;;;17.30;60.15;99592.25;4474234;31;19980;-87
2022/05/28 02:51:39;;;;;;;;;;;;;;;17.36;60.15;99599.75;4486875;31;20409;-86
2022/05/28 02:54:04;;;;;;;;;;;;;;;17.20;60.14;99593.72;4487267;31;19991;-87
2022/05/28 02:56:29;;;;;;;;;;;;;;;17.18;60.13;99593.81;4501478;31;20000;-86
2022/05/28 02:58:54;;;;;;;;;;;;;;;17.09;60.14;99585.66;4501528;31;19983;-86
2022/05/28 03:01:24;;;;;;;;;;;;;;;16.97;60.13;99581.16;4501132;31;21013;-87
2022/05/28 03:03:49;;;;;;;;;;;;;;;17.17;60.14;99575.50;4487179;31;19969;-88
2022/05/28 03:06:14;;;;;;;;;;;;;;;17.17;60.14;99567.63;4487070;31;19996;-86
2022/05/28 03:08:40;;;;;;;;;;;;;;;17.06;60.12;99568.31;4488896;31;19980;-85
2022/05/28 03:11:05;;;;;;;;;;;;;;;17.24;60.14;99563.66;4489415;31;19998;-85
2022/05/28 03:13:30;;;;;;;;;;;;;;;17.13;60.13;99563.50;4489221;31;19968;-85
2022/05/28 03:15:55;;;;;;;;;;;;;;;17.21;60.14;99563.00;4503623;31;19996;-85
2022/05/28 03:18:21;;;;;;;;;;;;;;;17.24;60.14;99561.03;4503660;31;20004;-86
2022/05/28 03:20:46;;;;;;;;;;;;;;;17.32;60.15;99573.72;4488872;31;19972;-86
2022/05/28 03:23:11;;;;;;;;;;;;;;;17.25;60.14;99580.28;4475978;31;20345;-86
2022/05/28 03:25:36;;;;;;;;;;;;;;;17.14;60.13;99575.72;4488421;31;26932;-86
2022/05/28 03:28:01;;;;;;;;;;;;;;;17.24;60.15;99570.72;4488985;31;19995;-86
2022/05/28 03:30:27;;;;;;;;;;;;;;;17.31;60.15;99578.16;4503368;31;19984;-85
2022/05/28 03:32:52;;;;;;;;;;;;;;;17.27;60.14;99574.03;4503469;31;19968;-85
2022/05/28 03:35:17;;;;;;;;;;;;;;;17.16;60.14;99560.69;4502838;31;21402;-85
2022/05/28 03:37:42;;;;;;;;;;;;;;;17.08;60.14;99557.69;4503461;31;19999;-85
2022/05/28 03:40:08;;;;;;;;;;;;;;;16.94;60.12;99555.03;4488852;31;20309;-85
2022/05/28 03:42:33;;;;;;;;;;;;;;;17.01;60.13;99564.22;4488967;31;19994;-86
2022/05/28 03:44:58;;;;;;;;;;;;;;;16.92;60.12;99565.66;4474993;31;23956;-86
2022/05/28 03:47:24;;;;;;;;;;;;;;;17.12;60.13;99572.34;4502714;31;19996;-86
2022/05/28 03:49:49;;;;;;;;;;;;;;;17.15;60.14;99578.25;4488819;31;20031;-86
2022/05/28 03:52:14;;;;;;;;;;;;;;;17.13;60.13;99574.03;4503194;31;20056;-86
2022/05/28 03:54:43;;;;;;;;;;;;;;;17.15;60.14;99583.50;4502624;31;25127;-86
2022/05/28 03:57:10;;;;;;;;;;;;;;;17.13;60.13;99577.50;4476118;31;19996;-86
2022/05/28 03:59:35;;;;;;;;;;;;;;;17.15;60.13;99572.13;4488500;31;19995;-87
2022/05/28 04:02:00;;;;;;;;;;;;;;;17.26;60.14;99566.19;4488700;31;20328;-86
2022/05/28 04:04:26;;;;;;;;;;;;;;;17.28;60.14;99562.56;4488445;31;20032;-86
2022/05/28 04:06:51;;;;;;;;;;;;;;;17.37;60.14;99556.72;4503251;31;19980;-85
2022/05/28 04:09:16;;;;;;;;;;;;;;;17.50;60.15;99562.88;4503020;31;19971;-85
2022/05/28 04:11:41;;;;;;;;;;;;;;;17.41;60.15;99555.56;4488523;31;19996;-85
2022/05/28 04:14:07;;;;;;;;;;;;;;;17.53;60.15;99555.75;4503119;31;19984;-84
2022/05/28 04:16:33;;;;;;;;;;;;;;;17.53;60.15;99566.28;4502419;31;24000;-83
2022/05/28 04:18:58;;;;;;;;;;;;;;;17.46;60.16;99574.53;4487671;31;19979;-84
2022/05/28 04:21:24;;;;;;;;;;;;;;;17.49;60.16;99576.97;4502713;31;20062;-83
2022/05/28 04:23:49;;;;;;;;;;;;;;;17.47;60.16;99565.69;4502839;31;19996;-85
2022/05/28 04:26:14;;;;;;;;;;;;;;;17.54;60.16;99562.69;4488496;31;19995;-83
2022/05/28 04:28:39;;;;;;;;;;;;;;;17.51;60.15;99553.22;4488431;31;20016;-86
2022/05/28 04:31:05;;;;;;;;;;;;;;;17.70;60.17;99551.09;4474759;31;22395;-85
2022/05/28 04:33:30;;;;;;;;;;;;;;;17.73;60.17;99550.06;4488330;31;19984;-85
2022/05/28 04:35:55;;;;;;;;;;;;;;;17.55;60.16;99559.13;4488306;31;19984;-85
2022/05/28 04:38:21;;;;;;;;;;;;;;;17.66;60.16;99562.75;4488156;31;20486;-85
2022/05/28 04:40:46;;;;;;;;;;;;;;;17.61;60.15;99564.00;4488301;31;20355;-84
2022/05/28 04:43:11;;;;;;;;;;;;;;;17.77;60.17;99564.75;4502627;31;20008;-84
2022/05/28 04:45:36;;;;;;;;;;;;;;;17.70;60.16;99569.53;4502521;31;19968;-83
2022/05/28 04:48:01;;;;;;;;;;;;;;;17.93;60.18;99570.69;4488079;31;20028;-83
2022/05/28 04:50:27;;;;;;;;;;;;;;;17.90;60.17;99580.56;4502818;31;19968;-83
2022/05/28 04:52:52;;;;;;;;;;;;;;;17.85;60.17;99565.06;4488228;31;20015;-84
2022/05/28 04:55:17;;;;;;;;;;;;;;;17.99;60.17;99564.19;4488279;31;19976;-83
2022/05/28 04:57:43;;;;;;;;;;;;;;;17.84;60.17;99568.66;4502708;31;20497;-83
2022/05/28 05:00:12;;;;;;;;;;;;;;;17.82;60.16;99570.53;4488248;31;20008;-84
2022/05/28 05:02:38;;;;;;;;;;;;;;;17.83;60.16;99564.34;4502722;31;19984;-85
2022/05/28 05:05:03;;;;;;;;;;;;;;;17.84;60.17;99567.81;4488124;31;20061;-84
2022/05/28 05:07:28;;;;;;;;;;;;;;;18.00;60.19;99574.63;4488243;31;19994;-84
2022/05/28 05:09:54;;;;;;;;;;;;;;;18.15;60.18;99590.34;4502338;31;19960;-85
2022/05/28 05:12:19;;;;;;;;;;;;;;;18.01;60.18;99584.22;4487733;31;20011;-85
2022/05/28 05:14:44;;;;;;;;;;;;;;;18.00;60.19;99574.63;4488223;31;20327;-85
2022/05/28 05:17:09;;;;;;;;;;;;;;;18.23;60.20;99575.75;4502082;31;19984;-84
2022/05/28 05:19:35;;;;;;;;;;;;;;;18.38;60.21;99572.06;4502594;31;19976;-84
2022/05/28 05:22:00;;;;;;;;;;;;;;;18.36;60.20;99575.75;4488329;31;20043;-84
2022/05/28 05:24:25;;;;;;;;;;;;;;;18.45;60.20;99572.50;4502832;31;19990;-84
2022/05/28 05:26:50;;;;;;;;;;;;;;;18.46;60.21;99574.22;4502602;31;19976;-84
2022/05/28 05:29:17;;;;;;;;;;;;;;;18.50;60.21;99578.31;4474763;31;19972;-85
2022/05/28 05:31:42;;;;;;;;;;;;;;;18.51;60.21;99582.66;4487814;31;19992;-84
2022/05/28 05:34:08;;;;;;;;;;;;;;;18.59;60.20;99575.06;4502587;31;19976;-85
2022/05/28 05:36:33;;;;;;;;;;;;;;;18.49;60.20;99570.53;4487920;31;19996;-85
2022/05/28 05:38:58;;;;;;;;;;;;;;;18.69;60.22;99573.53;4488252;31;20306;-86
2022/05/28 05:41:23;;;;;;;;;;;;;;;18.56;60.21;99580.53;4474796;31;20045;-86
2022/05/28 05:43:49;;;;;;;;;;;;;;;18.62;60.21;99581.91;4487893;31;19995;-85
2022/05/28 05:46:14;;;;;;;;;;;;;;;18.63;60.21;99584.47;4502356;31;19976;-87
2022/05/28 05:48:39;;;;;;;;;;;;;;;18.67;60.21;99578.03;4474956;31;19972;-85
2022/05/28 05:51:05;;;;;;;;;;;;;;;18.51;60.20;99593.19;4502551;31;19980;-85
2022/05/28 05:53:30;;;;;;;;;;;;;;;18.48;60.20;99590.78;4502717;31;19995;-85
2022/05/28 05:55:56;;;;;;;;;;;;;;;18.63;60.21;99581.84;4488022;31;19996;-86
2022/05/28 05:58:21;;;;;;;;;;;;;;;18.82;60.22;99575.31;4488004;31;20020;-86
2022/05/28 06:00:46;;;;;;;;;;;;;;;18.91;60.22;99567.59;4490448;31;19977;-84
2022/05/28 06:03:15;;;;;;;;;;;;;;;19.04;60.23;99572.03;4492111;31;20027;-84
2022/05/28 06:05:40;;;;;;;;;;;;;;;19.14;60.23;99578.34;4474944;31;20742;-84
2022/05/28 06:08:05;;;;;;;;;;;;;;;19.38;60.25;99566.06;4487901;31;19986;-83
2022/05/28 06:10:31;;;;;;;;;;;;;;;19.40;60.26;99565.94;4487798;31;20054;-84
2022/05/28 06:12:56;;;;;;;;;;;;;;;19.81;60.27;99549.81;4502206;31;20301;-84
2022/05/28 06:15:21;;;;;;;;;;;;;;;19.93;60.28;99560.31;4487322;31;20309;-84
2022/05/28 06:17:48;;;;;;;;;;;;;;;20.01;60.28;99570.31;4487567;31;19982;-84
2022/05/28 06:20:13;;;;;;;;;;;;;;;20.29;60.30;99563.81;4502072;31;20333;-84
2022/05/28 06:22:38;;;;;;;;;;;;;;;20.54;60.32;99553.09;4474517;31;19991;-84
2022/05/28 06:25:04;;;;;;;;;;;;;;;20.60;60.31;99561.56;4501819;31;19976;-84
2022/05/28 06:27:30;;;;;;;;;;;;;;;20.79;60.33;99545.94;4502105;31;20360;-84
2022/05/28 06:29:56;;;;;;;;;;;;;;;20.89;60.33;99554.84;4501960;31;20007;-84
2022/05/28 06:32:21;;;;;;;;;;;;;;;20.87;60.33;99563.88;4501703;31;20026;-85
2022/05/28 06:34:46;;;;;;;;;;;;;;;20.89;60.33;99564.59;4474222;31;19991;-84
2022/05/28 06:37:15;;;;;;;;;;;;;;;20.88;60.34;99566.41;4487394;31;20056;-84
2022/05/28 06:39:40;;;;;;;;;;;;;;;21.00;60.33;99554.84;4487254;31;19980;-84
2022/05/28 06:42:06;;;;;;;;;;;;;;;21.38;60.35;99551.87;4501601;31;20449;-84
2022/05/28 06:44:31;;;;;;;;;;;;;;;21.31;60.35;99552.50;4476014;31;20275;-84
2022/05/28 06:46:57;;;;;;;;;;;;;;;21.10;60.34;99547.88;4486176;32;19972;-84
2022/05/28 06:49:22;;;;;;;;;;;;;;;21.10;60.34;99552.34;4487863;31;20034;-84
2022/05/28 06:51:48;;;;;;;;;;;;;;;20.88;60.33;99557.63;4486614;32;20008;-84
2022/05/28 06:54:13;;;;;;;;;;;;;;;21.12;60.35;99555.72;4487755;31;20594;-84
2022/05/28 06:56:38;;;;;;;;;;;;;;;20.95;60.34;99553.53;4487650;32;20008;-84
2022/05/28 06:59:04;;;;;;;;;;;;;;;20.91;60.33;99558.22;4487814;31;19985;-84
2022/05/28 07:01:29;;;;;;;;;;;;;;;20.95;60.33;99558.81;4487802;32;19977;-84
2022/05/28 07:03:54;;;;;;;;;;;;;;;20.79;60.33;99572.38;4487822;32;19991;-84
2022/05/28 07:06:19;;;;;;;;;;;;;;;21.19;60.35;99571.94;4486915;32;20277;-85
2022/05/28 07:08:45;;;;;;;;;;;;;;;20.92;60.33;99574.94;4486096;32;22263;-85
2022/05/28 07:11:10;;;;;;;;;;;;;;;21.09;60.35;99579.78;4486049;32;19980;-85
2022/05/28 07:13:36;;;;;;;;;;;;;;;21.23;60.34;99576.88;4487667;31;19981;-86
2022/05/28 07:16:03;;;;;;;;;;;;;;;21.29;60.35;99584.34;4486290;32;20095;-85
2022/05/28 07:18:28;;;;;;;;;;;;;;;21.47;60.36;99575.91;4486230;32;19984;-85
2022/05/28 07:20:54;;;;;;;;;;;;;;;21.71;60.38;99580.09;4486335;32;20005;-85
2022/05/28 07:23:23;;;;;;;;;;;;;;;21.51;60.37;99585.31;4486233;32;20251;-85
2022/05/28 07:25:48;;;;;;;;;;;;;;;21.65;60.37;99583.25;4486446;32;20018;-86
2022/05/28 07:28:27;;;;;;;;;;;;;;;21.81;60.38;99584.66;4486172;32;20101;-85
2022/05/28 07:30:53;;;;;;;;;;;;;;;21.69;60.37;99594.44;4474613;32;20027;-86
2022/05/28 07:33:18;;;;;;;;;;;;;;;21.55;60.37;99592.91;4486372;32;20309;-86
2022/05/28 07:35:43;;;;;;;;;;;;;;;21.73;60.38;99596.69;4473049;32;19972;-85
2022/05/28 07:38:09;;;;;;;;;;;;;;;21.78;60.39;99599.00;4473092;32;20008;-86
2022/05/28 07:40:34;;;;;;;;;;;;;;;21.88;60.39;99604.41;4486253;32;20297;-86
2022/05/28 07:42:59;;;;;;;;;;;;;;;21.96;60.39;99601.94;4486280;32;19989;-86
2022/05/28 07:45:24;;;;;;;;;;;;;;;21.72;60.38;99605.63;4487527;31;19972;-86
2022/05/28 07:47:50;;;;;;;;;;;;;;;22.01;60.40;99595.34;4485795;32;19992;-85
2022/05/28 07:50:15;;;;;;;;;;;;;;;21.94;60.38;99593.28;4488594;32;19993;-86
2022/05/28 07:52:40;;;;;;;;;;;;;;;21.77;60.38;99607.91;4492683;32;19976;-86
2022/05/28 07:55:06;;;;;;;;;;;;;;;21.93;60.38;99615.44;4486305;32;20365;-86
2022/05/28 07:57:31;;;;;;;;;;;;;;;22.25;60.40;99599.63;4487099;31;20342;-86
2022/05/28 07:59:56;;;;;;;;;;;;;;;22.10;60.40;99617.63;4487334;32;19968;-85
2022/05/28 08:02:21;;;;;;;;;;;;;;;21.97;60.39;99609.78;4486068;32;20306;-86
2022/05/28 08:04:47;;;;;;;;;;;;;;;22.29;60.41;99609.00;4487305;32;20008;-86
2022/05/28 08:07:12;;;;;;;;;;;;;;;22.35;60.41;99596.06;4486395;32;23899;-86
2022/05/28 08:09:37;;;;;;;;;;;;;;;22.58;60.43;99598.59;4487260;32;19995;-86
2022/05/28 08:12:02;;;;;;;;;;;;;;;22.54;60.42;99599.84;4486815;32;19988;-84
2022/05/28 08:14:28;;;;;;;;;;;;;;;22.71;60.42;99601.88;4487076;31;20010;-83
2022/05/28 08:16:53;;;;;;;;;;;;;;;22.82;60.44;99591.25;4486027;32;20333;-83
2022/05/28 08:19:18;;;;;;;;;;;;;;;22.87;60.43;99596.16;4487384;31;20020;-83
2022/05/28 08:24:28;;;;;;;;;;;;;;;23.11;60.46;99609.16;4487242;32;19991;-84
2022/05/28 08:26:53;;;;;;;;;;;;;;;23.27;60.46;99605.03;4485800;32;19988;-83
2022/05/28 08:29:22;;;;;;;;;;;;;;;23.16;60.45;99617.56;4487019;32;19968;-84
2022/05/28 08:31:47;;;;;;;;;;;;;;;23.14;60.45;99609.72;4473132;32;20024;-83
2022/05/28 08:34:12;;;;;;;;;;;;;;;22.91;60.44;99619.66;4487203;32;19965;-83
2022/05/28 08:36:37;;;;;;;;;;;;;;;22.67;60.43;99619.03;4486792;32;20036;-83
2022/05/28 08:39:03;;;;;;;;;;;;;;;22.72;60.44;99614.22;4486729;32;20866;-83
2022/05/28 08:41:35;;;;;;;;;;;;;;;22.52;60.42;99610.56;4486767;32;20245;-82
2022/05/28 08:44:00;;;;;;;;;;;;;;;22.70;60.42;99604.66;4485568;32;20329;-83
2022/05/28 08:46:26;;;;;;;;;;;;;;;22.93;60.44;99611.56;4485583;32;19985;-83
2022/05/28 08:48:52;;;;;;;;;;;;;;;22.92;60.44;99604.56;4485730;32;20004;-83
2022/05/28 08:51:36;;;;;;;;;;;;;;;22.64;60.43;99614.00;4487030;31;19991;-83
2022/05/28 08:54:04;;;;;;;;;;;;;;;22.45;60.42;99613.84;4487300;31;20032;-83
2022/05/28 08:56:29;;;;;;;;;;;;;;;22.46;60.42;99600.47;4485773;32;19984;-83
2022/05/28 08:58:58;;;;;;;;;;;;;;;22.60;60.42;99601.97;4485755;32;20329;-83
2022/05/28 09:01:24;;;;;;;;;;;;;;;23.01;60.44;99601.16;4486026;32;20036;-83
2022/05/28 09:03:50;;;;;;;;;;;;;;;23.21;60.46;99604.75;4472642;32;19980;-84
2022/05/28 09:06:20;;;;;;;;;;;;;;;23.47;60.46;99610.44;4484995;32;19996;-83
2022/05/28 09:08:46;;;;;;;;;;;;;;;23.21;60.46;99600.28;4472695;32;20088;-83
2022/05/28 09:11:13;;;;;;;;;;;;;;;23.19;60.46;99598.72;4487177;31;19982;-84
2022/05/28 09:13:39;;;;;;;;;;;;;;;;;;4485837;32;19972;-83
2022/05/28 09:16:04;;;;;;;;;;;;;;;23.26;60.46;99586.59;4485668;32;20029;-83
2022/05/28 09:18:32;;;;;;;;;;;;;;;23.48;60.47;99586.38;4472597;32;19991;-84
2022/05/28 09:20:59;;;;;;;;;;;;;;;23.79;60.49;99583.69;4485683;32;20032;-83
2022/05/28 09:23:24;;;;;;;;;;;;;;;23.92;60.50;99594.09;4486985;31;20016;-83
2022/05/28 09:25:50;;;;;;;;;;;;;;;24.10;60.50;99592.41;4485452;32;20007;-83
2022/05/28 09:28:30;;;;;;;;;;;;;;;24.03;60.50;99584.16;4485571;32;19985;-83
2022/05/28 09:31:11;;;;;;;;;;;;;;;23.96;60.50;99593.66;4485589;32;19984;-83
2022/05/28 09:33:48;;;;;;;;;;;;;;;23.89;60.50;99592.50;4485484;32;20466;-83
2022/05/28 09:36:16;;;;;;;;;;;;;;;23.58;60.48;99581.97;4486716;32;19989;-83
2022/05/28 09:38:54;;;;;;;;;;;;;;;23.70;60.49;99584.53;4486773;31;20074;-82
2022/05/28 09:41:23;;;;;;;;;;;;;;;23.84;60.49;99589.44;4491624;32;19983;-83
2022/05/28 09:44:07;;;;;;;;;;;;;;;23.79;60.50;99589.84;4486760;32;19983;-83
2022/05/28 09:46:36;;;;;;;;;;;;;;;23.33;60.46;99601.00;4486912;31;19977;-83
2022/05/28 09:49:09;;;;;;;;;;;;;;;23.36;60.47;99597.22;4487902;31;20363;-83
2022/05/28 09:51:35;;;;;;;;;;;;;;;23.16;60.45;99601.62;4502263;31;20064;-83
2022/05/28 09:54:20;;;;;;;;;;;;;;;23.17;60.46;99608.62;4502183;31;20221;-83
2022/05/28 09:57:09;;;;;;;;;;;;;;;23.00;60.45;99602.13;4489077;31;19976;-83
2022/05/28 09:59:43;;;;;;;;;;;;;;;22.96;60.45;99601.53;4502574;31;20040;-83
2022/05/28 10:02:17;;;;;;;;;;;;;;;22.88;60.45;99604.00;4502391;31;20047;-83
2022/05/28 10:04:47;;;;;;;;;;;;;;;22.87;60.45;99602.31;4502196;31;20327;-83
2022/05/28 10:07:12;;;;;;;;;;;;;;;22.81;60.45;99596.66;4487660;31;19993;-83
2022/05/28 10:09:46;;;;;;;;;;;;;;;22.79;60.44;99596.78;4474237;31;19995;-83
2022/05/28 10:12:21;;;;;;;;;;;;;;;22.98;60.45;99592.59;4502083;31;20056;-83
2022/05/28 10:14:56;;;;;;;;;;;;;;;23.13;60.46;99584.13;4487996;31;19964;-83
2022/05/28 10:17:22;;;;;;;;;;;;;;;23.45;60.47;99578.69;4486523;31;20011;-83
2022/05/28 10:19:47;;;;;;;;;;;;;;;23.68;60.49;99576.69;4487896;31;20295;-83
2022/05/28 10:22:14;;;;;;;;;;;;;;;24.04;60.51;99563.72;4474232;31;21555;-83
2022/05/28 10:24:41;;;;;;;;;;;;;;;24.03;60.50;99562.03;4487929;31;20003;-83
2022/05/28 10:27:10;;;;;;;;;;;;;;;24.18;60.51;99550.00;4487746;31;20000;-83
2022/05/28 10:29:38;;;;;;;;;;;;;;;24.25;60.51;99560.91;4474194;31;20069;-83
2022/05/28 10:32:03;;;;;;;;;;;;;;;23.70;60.49;99558.78;4501911;31;19980;-82
2022/05/28 10:34:37;;;;;;;;;;;;;;;23.66;60.49;99568.03;4487389;31;20281;-84
2022/05/28 10:37:06;;;;;;;;;;;;;;;23.94;60.50;99565.53;4501863;31;20008;-83
2022/05/28 10:39:31;;;;;;;;;;;;;;;23.77;60.49;99562.56;4487691;31;20041;-83
2022/05/28 10:41:56;;;;;;;;;;;;;;;23.66;60.49;99565.34;4487320;31;19976;-83
2022/05/28 10:44:23;;;;;;;;;;;;;;;23.94;60.50;99550.44;4487122;31;20008;-84
2022/05/28 10:46:55;;;;;;;;;;;;;;;24.08;60.51;99547.34;4487190;31;20047;-83
2022/05/28 10:49:29;;;;;;;;;;;;;;;24.20;60.52;99553.38;4501501;31;19996;-84
2022/05/28 10:52:11;;;;;;;;;;;;;;;24.44;60.53;99558.28;4501563;31;20035;-84
2022/05/28 10:54:39;;;;;;;;;;;;;;;24.49;60.53;99556.03;4486891;31;20316;-83
2022/05/28 10:57:16;;;;;;;;;;;;;;;24.49;60.52;99545.38;4501323;31;19998;-83
2022/05/28 10:59:47;;;;;;;;;;;;;;;24.44;60.53;99534.34;4486970;31;20383;-83
2022/05/28 11:02:25;;;;;;;;;;;;;;;24.52;60.54;99536.28;4486868;31;20321;-84
2022/05/28 11:05:00;;;;;;;;;;;;;;;24.52;60.53;99541.59;4486764;31;20024;-83
2022/05/28 11:07:31;;;;;;;;;;;;;;;24.45;60.53;99533.34;4501361;31;19984;-83
2022/05/28 11:10:02;;;;;;;;;;;;;;;24.07;60.51;99536.84;4486770;31;19997;-83
2022/05/28 11:12:38;;;;;;;;;;;;;;;23.68;60.49;99541.31;4473804;31;19999;-83
2022/05/28 11:15:09;;;;;;;;;;;;;;;23.77;60.49;99541.31;4486821;31;19991;-83
2022/05/28 11:17:53;;;;;;;;;;;;;;;23.64;60.49;99538.06;4486826;31;20010;-84
2022/05/28 11:20:22;;;;;;;;;;;;;;;23.93;60.50;99543.44;4501509;31;20040;-85
2022/05/28 11:23:02;;;;;;;;;;;;;;;23.67;60.49;99532.50;4486726;31;20016;-83
2022/05/28 11:25:48;;;;;;;;;;;;;;;23.67;60.49;99537.81;4501090;31;19992;-84
2022/05/28 11:28:13;;;;;;;;;;;;;;;23.71;60.48;99535.72;4487219;31;19988;-85
2022/05/28 11:30:39;;;;;;;;;;;;;;;23.90;60.50;99533.06;4504038;31;20021;-84
2022/05/28 11:33:25;;;;;;;;;;;;;;;23.99;60.51;99534.03;4503646;31;19994;-83
2022/05/28 11:35:51;;;;;;;;;;;;;;;24.26;60.52;99518.22;4503662;31;19968;-84
2022/05/28 11:38:26;;;;;;;;;;;;;;;24.65;60.53;99512.87;4475964;31;20317;-83
2022/05/28 11:40:54;;;;;;;;;;;;;;;24.74;60.55;99512.81;4488831;31;20344;-83
2022/05/28 11:43:21;;;;;;;;;;;;;;;24.60;60.53;99521.25;4503345;31;19991;-83
2022/05/28 11:45:53;;;;;;;;;;;;;;;24.42;60.52;99523.00;4488754;31;20077;-83
2022/05/28 11:51:27;;;;;;;;;;;;;;;24.62;60.54;99518.47;4488602;31;19987;-83
2022/05/28 11:51:29;;;;;;;;;;;;;;;24.45;60.53;99504.09;4490999;31;20028;-83
2022/05/28 11:54:14;;;;;;;;;;;;;;;24.25;60.52;99505.06;4489731;31;19994;-83
2022/05/28 11:56:40;;;;;;;;;;;;;;;24.06;60.51;99506.75;4502810;31;20013;-84
2022/05/28 11:59:12;;;;;;;;;;;;;;;23.79;60.49;99509.28;4474964;31;22632;-88
2022/05/28 12:01:44;;;;;;;;;;;;;;;23.96;60.50;99499.78;4489029;31;20092;-85
2022/05/28 12:04:09;;;;;;;;;;;;;;;24.12;60.52;99497.34;4503000;31;19995;-85
2022/05/28 12:06:35;;;;;;;;;;;;;;;24.42;60.52;99501.72;4502788;31;20313;-86
2022/05/28 12:09:09;;;;;;;;;;;;;;;24.46;60.53;99498.63;4488515;31;20000;-84
2022/05/28 12:11:37;;;;;;;;;;;;;;;24.10;60.51;99488.69;4475371;31;20382;-83
2022/05/28 12:14:04;;;;;;;;;;;;;;;24.02;60.51;99486.75;4488432;31;19980;-84
2022/05/28 12:16:31;;;;;;;;;;;;;;;23.92;60.50;99491.25;4488379;31;19964;-83
2022/05/28 12:18:59;;;;;;;;;;;;;;;23.85;60.50;99490.94;4502735;31;20008;-83
2022/05/28 12:21:25;;;;;;;;;;;;;;;23.82;60.50;99493.03;4475404;31;19988;-82
2022/05/28 12:23:50;;;;;;;;;;;;;;;23.68;60.49;99496.13;4502885;31;19976;-83
2022/05/28 12:29:44;;;;;;;;;;;;;;;23.57;60.49;99489.94;4490767;31;20045;-83
2022/05/28 12:32:19;;;;;;;;;;;;;;;23.45;60.47;99496.34;4483911;31;19988;-84
2022/05/28 12:34:59;;;;;;;;;;;;;;;23.37;60.48;99485.53;4502569;31;19972;-85
2022/05/28 12:37:30;;;;;;;;;;;;;;;23.38;60.48;99495.19;4502644;31;19982;-84
2022/05/28 12:39:58;;;;;;;;;;;;;;;23.55;60.48;99494.53;4501867;31;20004;-83
2022/05/28 12:42:27;;;;;;;;;;;;;;;23.40;60.48;99497.72;4502962;31;19980;-84
2022/05/28 12:44:53;;;;;;;;;;;;;;;23.53;60.48;99487.69;4488186;31;19976;-85
2022/05/28 12:47:25;;;;;;;;;;;;;;;23.17;60.46;99482.00;4502647;31;19974;-83
2022/05/28 12:50:02;;;;;;;;;;;;;;;23.06;60.46;99494.56;4488329;31;19980;-84
2022/05/28 12:52:42;;;;;;;;;;;;;;;22.49;60.43;99490.63;4488520;31;20040;-84
2022/05/28 12:55:26;;;;;;;;;;;;;;;22.70;60.45;99480.81;4488383;31;20024;-84
2022/05/28 12:58:02;;;;;;;;;;;;;;;22.63;60.44;99488.47;4503030;31;19978;-84